createdAt,value
2023-05-06T00:01:39.642Z,98205.09
2023-05-06T00:04:06.122Z,98199.75
2023-05-06T00:06:32.702Z,98178.03
2023-05-06T00:08:59.451Z,98180.72
2023-05-06T00:11:26.738Z,98185.66
2023-05-06T00:13:53.091Z,98190.25
2023-05-06T00:16:19.434Z,98181.84
2023-05-06T00:18:45.849Z,98173.47
2023-05-06T00:21:12.176Z,98185.69
2023-05-06T00:23:38.563Z,98173.09
2023-05-06T00:26:05.188Z,98189.06
2023-05-06T00:28:31.589Z,98176.44
2023-05-06T00:30:57.914Z,98192.84
2023-05-06T00:33:24.302Z,98186.72
2023-05-06T00:35:52.153Z,98190.53
2023-05-06T00:38:18.532Z,98186.03
2023-05-06T00:40:45.352Z,98178.75
2023-05-06T00:43:12.304Z,98171.94
2023-05-06T00:45:38.751Z,98180.28
2023-05-06T00:48:05.863Z,98173.44
2023-05-06T00:50:33.092Z,98171.19
2023-05-06T00:53:00.339Z,98170.38
2023-05-06T00:55:27.416Z,98173.44
2023-05-06T00:57:54.348Z,98168.88
2023-05-06T01:00:21.049Z,98175.34
2023-05-06T01:02:48.397Z,98178.03
2023-05-06T01:05:17.290Z,98171.94
2023-05-06T01:08:05.703Z,98182.56
2023-05-06T01:10:36.742Z,98163.53
2023-05-06T01:13:35.473Z,98166.22
2023-05-06T01:16:02.216Z,98158.22
2023-05-06T01:18:29.906Z,98159.34
2023-05-06T01:20:56.616Z,98157.44
2023-05-06T01:23:23.015Z,98159.34
2023-05-06T01:25:49.384Z,98150.97
2023-05-06T01:28:15.703Z,98149.44
2023-05-06T01:30:53.136Z,98154.41
2023-05-06T01:33:28.375Z,98155.91
2023-05-06T01:36:07.049Z,98143.75
2023-05-06T01:38:52.730Z,98141.06
2023-05-06T01:41:19.983Z,98127.34
2023-05-06T01:43:47.868Z,98149.84
2023-05-06T01:46:18.491Z,98163.53
2023-05-06T01:48:46.216Z,98166.56
2023-05-06T01:51:12.757Z,98160.84
2023-05-06T01:53:39.092Z,98161.22
2023-05-06T01:56:05.815Z,98174.13
2023-05-06T01:58:32.162Z,98164.22
2023-05-06T02:00:58.632Z,98154.34
2023-05-06T02:03:25.115Z,98181.00
2023-05-06T02:05:51.503Z,98171.84
2023-05-06T02:08:17.846Z,98171.09
2023-05-06T02:10:44.187Z,98166.47
2023-05-06T02:13:11.861Z,98163.78
2023-05-06T02:15:38.232Z,98171.81
2023-05-06T02:18:04.671Z,98162.66
2023-05-06T02:20:31.054Z,98165.72
2023-05-06T02:22:57.382Z,98164.19
2023-05-06T02:25:23.709Z,98164.16
2023-05-06T02:27:50.023Z,98163.41
2023-05-06T02:30:16.386Z,98156.19
2023-05-06T02:32:42.931Z,98164.97
2023-05-06T02:35:09.812Z,98155.47
2023-05-06T02:37:36.418Z,98148.22
2023-05-06T02:40:02.753Z,98151.28
2023-05-06T02:42:29.158Z,98155.09
2023-05-06T02:44:55.555Z,98161.16
2023-05-06T02:47:21.915Z,98153.16
2023-05-06T02:49:48.298Z,98153.13
2023-05-06T02:52:14.744Z,98144.38
2023-05-06T02:54:41.080Z,98153.47
2023-05-06T02:57:07.482Z,98159.59
2023-05-06T02:59:35.030Z,98154.28
2023-05-06T03:02:01.395Z,98141.66
2023-05-06T03:04:27.796Z,98159.56
2023-05-06T03:06:54.232Z,98154.97
2023-05-06T03:09:20.562Z,98161.81
2023-05-06T03:11:47.256Z,98140.50
2023-05-06T03:14:13.604Z,98158.41
2023-05-06T03:16:39.997Z,98158.41
2023-05-06T03:19:06.369Z,98151.94
2023-05-06T03:21:32.897Z,98155.75
2023-05-06T03:23:59.462Z,98162.16
2023-05-06T03:26:25.796Z,98167.44
2023-05-06T03:28:52.125Z,98157.19
2023-05-06T03:31:18.476Z,98158.34
2023-05-06T03:33:44.839Z,98164.06
2023-05-06T03:36:11.198Z,98163.22
2023-05-06T03:38:38.545Z,98167.81
2023-05-06T03:41:04.885Z,98174.69
2023-05-06T03:43:31.220Z,98169.31
2023-05-06T03:45:58.060Z,98183.75
2023-05-06T03:48:24.422Z,98179.97
2023-05-06T03:50:51.173Z,98176.84
2023-05-06T03:53:17.547Z,98189.41
2023-05-06T03:55:43.874Z,98166.91
2023-05-06T03:58:10.935Z,98175.72
2023-05-06T04:00:37.299Z,98177.63
2023-05-06T04:03:03.738Z,98182.94
2023-05-06T04:05:30.136Z,98183.75
2023-05-06T04:07:56.468Z,98175.34
2023-05-06T04:10:22.794Z,98177.25
2023-05-06T04:12:49.137Z,98189.81
2023-05-06T04:15:15.495Z,98200.50
2023-05-06T04:17:41.845Z,98202.00
2023-05-06T04:20:08.926Z,98198.63
2023-05-06T04:22:35.286Z,98193.59
2023-05-06T04:25:01.640Z,98203.16
2023-05-06T04:27:27.977Z,98207.34
2023-05-06T04:29:54.319Z,98207.72
2023-05-06T04:32:20.634Z,98208.09
2023-05-06T04:34:46.978Z,98189.38
2023-05-06T04:37:13.290Z,98208.06
2023-05-06T04:39:39.616Z,98199.69
2023-05-06T04:42:06.067Z,98203.50
2023-05-06T04:44:32.462Z,98205.00
2023-05-06T04:46:58.789Z,98208.81
2023-05-06T04:49:25.123Z,98195.91
2023-05-06T04:51:51.462Z,98222.22
2023-05-06T04:54:17.789Z,98213.81
2023-05-06T04:56:44.116Z,98201.94
2023-05-06T04:59:10.520Z,98216.84
2023-05-06T05:01:36.885Z,98208.94
2023-05-06T05:04:03.310Z,98212.69
2023-05-06T05:06:29.637Z,98213.84
2023-05-06T05:08:56.038Z,98218.81
2023-05-06T05:11:22.609Z,98225.63
2023-05-06T05:13:48.931Z,98221.75
2023-05-06T05:16:15.341Z,98227.91
2023-05-06T05:18:41.697Z,98234.34
2023-05-06T05:21:08.050Z,98246.53
2023-05-06T05:23:34.481Z,98234.41
2023-05-06T05:26:01.334Z,98234.00
2023-05-06T05:28:27.652Z,98240.81
2023-05-06T05:30:54.009Z,98246.09
2023-05-06T05:33:20.429Z,98237.31
2023-05-06T05:35:46.863Z,98220.53
2023-05-06T05:38:13.195Z,98244.34
2023-05-06T05:40:39.549Z,98239.44
2023-05-06T05:43:05.884Z,98237.59
2023-05-06T05:45:32.214Z,98238.00
2023-05-06T05:47:58.629Z,98252.53
2023-05-06T05:50:24.971Z,98231.28
2023-05-06T05:52:52.371Z,98254.88
2023-05-06T05:55:18.751Z,98255.69
2023-05-06T05:57:45.086Z,98258.72
2023-05-06T06:00:13.471Z,98248.31
2023-05-06T06:02:40.218Z,98260.56
2023-05-06T06:05:07.229Z,98264.78
2023-05-06T06:07:33.765Z,98265.91
2023-05-06T06:10:00.161Z,98246.44
2023-05-06T06:12:26.503Z,98252.56
2023-05-06T06:14:52.863Z,98258.69
2023-05-06T06:17:19.236Z,98261.72
2023-05-06T06:19:46.255Z,98273.56
2023-05-06T06:22:13.052Z,98272.38
2023-05-06T06:24:39.406Z,98270.16
2023-05-06T06:27:05.717Z,98269.38
2023-05-06T06:29:32.070Z,98275.50
2023-05-06T06:31:59.133Z,98267.09
2023-05-06T06:34:25.537Z,98280.00
2023-05-06T06:36:51.864Z,98276.97
2023-05-06T06:39:18.199Z,98274.25
2023-05-06T06:41:44.521Z,98288.38
2023-05-06T06:44:10.888Z,98296.00
2023-05-06T06:46:37.234Z,98291.78
2023-05-06T06:49:03.572Z,98292.50
2023-05-06T06:51:29.896Z,98288.25
2023-05-06T06:53:56.229Z,98296.69
2023-05-06T06:56:22.553Z,98297.47
2023-05-06T06:58:49.573Z,98309.66
2023-05-06T07:01:17.175Z,98300.53
2023-05-06T07:03:43.558Z,98308.19
2023-05-06T07:06:09.888Z,98310.47
2023-05-06T07:08:36.235Z,98305.16
2023-05-06T07:11:03.632Z,98308.94
2023-05-06T07:13:29.977Z,98316.91
2023-05-06T07:15:56.304Z,98305.88
2023-05-06T07:18:22.668Z,98325.66
2023-05-06T07:20:49.032Z,98319.59
2023-05-06T07:23:15.375Z,98324.94
2023-05-06T07:25:41.706Z,98322.19
2023-05-06T07:28:08.087Z,98332.84
2023-05-06T07:30:34.421Z,98333.94
2023-05-06T07:33:00.833Z,98330.84
2023-05-06T07:35:27.273Z,98339.22
2023-05-06T07:37:53.631Z,98330.09
2023-05-06T07:40:19.980Z,98343.00
2023-05-06T07:42:46.352Z,98341.53
2023-05-06T07:45:12.917Z,98347.63
2023-05-06T07:47:39.538Z,98341.88
2023-05-06T07:50:06.356Z,98352.13
2023-05-06T07:52:32.737Z,98356.31
2023-05-06T07:54:59.105Z,98358.94
2023-05-06T07:57:25.527Z,98364.56
2023-05-06T07:59:52.162Z,98370.34
2023-05-06T08:02:18.764Z,98368.09
2023-05-06T08:04:45.422Z,98362.41
2023-05-06T08:07:11.859Z,98375.94
2023-05-06T08:09:38.199Z,98361.09
2023-05-06T08:12:04.696Z,98365.38
2023-05-06T08:14:31.117Z,98368.44
2023-05-06T08:16:57.456Z,98367.63
2023-05-06T08:19:23.791Z,98369.13
2023-05-06T08:21:50.123Z,98377.56
2023-05-06T08:24:16.456Z,98382.56
2023-05-06T08:26:42.805Z,98378.28
2023-05-06T08:29:09.137Z,98375.69
2023-05-06T08:31:36.560Z,98379.91
2023-05-06T08:34:02.948Z,98385.59
2023-05-06T08:36:29.290Z,98390.16
2023-05-06T08:38:55.623Z,98372.91
2023-05-06T08:41:22.127Z,98393.19
2023-05-06T08:43:49.635Z,98399.28
2023-05-06T08:46:16.914Z,98401.97
2023-05-06T08:48:43.566Z,98388.94
2023-05-06T08:51:13.683Z,98391.25
2023-05-06T08:53:40.186Z,98386.66
2023-05-06T08:56:10.547Z,98396.59
2023-05-06T08:58:38.869Z,98401.97
2023-05-06T09:01:05.487Z,98405.47
2023-05-06T09:03:32.060Z,98408.22
2023-05-06T09:05:58.572Z,98399.84
2023-05-06T09:08:25.121Z,98400.69
2023-05-06T09:10:51.517Z,98394.19
2023-05-06T09:13:18.893Z,98397.66
2023-05-06T09:15:47.298Z,98391.59
2023-05-06T09:18:14.479Z,98383.94
2023-05-06T09:20:42.417Z,98398.03
2023-05-06T09:23:09.635Z,98387.81
2023-05-06T09:25:36.925Z,98395.84
2023-05-06T09:28:04.539Z,98402.69
2023-05-06T09:30:30.886Z,98380.53
2023-05-06T09:32:57.459Z,98404.22
2023-05-06T09:35:28.140Z,98390.88
2023-05-06T09:37:54.826Z,98402.72
2023-05-06T09:40:25.236Z,98400.06
2023-05-06T09:42:51.606Z,98400.03
2023-05-06T09:45:18.014Z,98390.84
2023-05-06T09:47:44.364Z,98405.34
2023-05-06T09:50:13.448Z,98393.16
2023-05-06T09:52:39.872Z,98390.13
2023-05-06T09:55:06.573Z,98387.84
2023-05-06T09:57:32.915Z,98384.03
2023-05-06T10:00:00.108Z,98387.47
2023-05-06T10:02:26.690Z,98394.72
2023-05-06T10:04:54.737Z,98395.50
2023-05-06T10:07:21.538Z,98403.91
2023-05-06T10:09:49.060Z,98400.09
2023-05-06T10:12:16.312Z,98394.72
2023-05-06T10:14:42.642Z,98395.88
2023-05-06T10:17:09.898Z,98394.72
2023-05-06T10:19:40.027Z,98391.69
2023-05-06T10:22:31.039Z,98394.00
2023-05-06T10:25:05.007Z,98388.97
2023-05-06T10:27:35.525Z,98394.69
2023-05-06T10:30:02.991Z,98387.88
2023-05-06T10:32:32.294Z,98390.16
2023-05-06T10:35:05.692Z,98395.50
2023-05-06T10:37:32.610Z,98398.16
2023-05-06T10:39:59.677Z,98396.28
2023-05-06T10:42:27.460Z,98402.00
2023-05-06T10:45:01.644Z,98403.13
2023-05-06T10:47:28.039Z,98395.47
2023-05-06T10:50:18.942Z,98397.75
2023-05-06T10:52:46.020Z,98397.03
2023-05-06T10:55:31.532Z,98398.53
2023-05-06T10:58:18.585Z,98397.34
2023-05-06T11:00:53.710Z,98373.63
2023-05-06T11:03:23.205Z,98389.06
2023-05-06T11:05:51.014Z,98384.38
2023-05-06T11:08:25.190Z,98376.56
2023-05-06T11:10:52.669Z,98391.50
2023-05-06T11:13:22.051Z,98389.84
2023-05-06T11:15:49.412Z,98394.09
2023-05-06T11:18:24.896Z,98395.72
2023-05-06T11:20:51.948Z,98368.66
2023-05-06T11:23:18.921Z,98393.88
2023-05-06T11:25:45.259Z,98396.94
2023-05-06T11:28:13.397Z,98393.81
2023-05-06T11:30:44.160Z,98382.38
2023-05-06T11:33:17.908Z,98397.19
2023-05-06T11:35:44.603Z,98381.81
2023-05-06T11:38:11.079Z,98378.78
2023-05-06T11:40:37.475Z,98390.47
2023-05-06T11:43:16.619Z,98371.03
2023-05-06T11:45:46.395Z,98379.28
2023-05-06T11:48:16.894Z,98380.34
2023-05-06T11:50:48.492Z,98391.88
2023-05-06T11:53:17.356Z,98390.19
2023-05-06T11:55:44.449Z,98401.03
2023-05-06T11:58:19.026Z,98403.34
2023-05-06T12:00:51.229Z,98398.72
2023-05-06T12:03:21.299Z,98396.97
2023-05-06T12:05:49.044Z,98410.16
2023-05-06T12:08:26.608Z,98400.63
2023-05-06T12:10:59.853Z,98404.81
2023-05-06T12:13:27.154Z,98407.84
2023-05-06T12:15:54.719Z,98406.75
2023-05-06T12:18:21.513Z,98405.38
2023-05-06T12:20:47.833Z,98400.69
2023-05-06T12:23:15.927Z,98412.53
2023-05-06T12:25:43.389Z,98410.69
2023-05-06T12:28:16.725Z,98400.47
2023-05-06T12:30:43.666Z,98417.06
2023-05-06T12:33:10.192Z,98410.69
2023-05-06T12:35:37.055Z,98420.81
2023-05-06T12:38:10.221Z,98424.91
2023-05-06T12:40:36.631Z,98416.72
2023-05-06T12:43:02.969Z,98418.94
2023-05-06T12:45:29.423Z,98420.66
2023-05-06T12:47:57.720Z,98417.84
2023-05-06T12:50:40.495Z,98416.47
2023-05-06T12:53:08.268Z,98417.09
2023-05-06T12:55:37.842Z,98397.50
2023-05-06T12:58:04.326Z,98411.94
2023-05-06T13:00:30.651Z,98401.31
2023-05-06T13:02:57.075Z,98409.06
2023-05-06T13:05:23.461Z,98414.69
2023-05-06T13:07:50.027Z,98397.94
2023-05-06T13:10:16.357Z,98411.88
2023-05-06T13:12:42.921Z,98411.00
2023-05-06T13:15:09.678Z,98411.09
2023-05-06T13:17:36.106Z,98401.97
2023-05-06T13:20:04.451Z,98397.69
2023-05-06T13:22:40.322Z,98399.47
2023-05-06T13:25:13.592Z,98386.88
2023-05-06T13:27:39.902Z,98400.94
2023-05-06T13:30:06.761Z,98386.81
2023-05-06T13:32:33.178Z,98402.94
2023-05-06T13:34:59.589Z,98405.66
2023-05-06T13:37:25.901Z,98412.56
2023-05-06T13:39:53.275Z,98387.59
2023-05-06T13:42:19.593Z,98404.91
2023-05-06T13:44:45.922Z,98404.56
2023-05-06T13:47:12.254Z,98403.25
2023-05-06T13:49:38.594Z,98409.25
2023-05-06T13:52:07.115Z,98393.31
2023-05-06T13:54:34.434Z,98407.84
2023-05-06T13:57:00.786Z,98394.03
2023-05-06T13:59:27.136Z,98391.16
2023-05-06T14:01:54.018Z,98395.13
2023-05-06T14:04:20.376Z,98397.31
2023-05-06T14:06:46.842Z,98388.31
2023-05-06T14:09:13.162Z,98389.31
2023-05-06T14:11:39.498Z,98393.81
2023-05-06T14:14:05.833Z,98394.56
2023-05-06T14:16:32.392Z,98394.91
2023-05-06T14:18:59.136Z,98388.59
2023-05-06T14:21:25.527Z,98397.69
2023-05-06T14:23:51.846Z,98372.50
2023-05-06T14:26:18.260Z,98395.22
2023-05-06T14:28:44.599Z,98391.88
2023-05-06T14:31:10.977Z,98388.66
2023-05-06T14:33:37.977Z,98395.16
2023-05-06T14:36:05.046Z,98401.06
2023-05-06T14:38:31.394Z,98401.19
2023-05-06T14:40:59.402Z,98393.59
2023-05-06T14:43:25.962Z,98387.97
2023-05-06T14:45:52.405Z,98396.81
2023-05-06T14:48:18.773Z,98391.25
2023-05-06T14:50:45.113Z,98400.16
2023-05-06T14:53:11.516Z,98387.03
2023-05-06T14:55:37.857Z,98397.25
2023-05-06T14:58:04.172Z,98392.78
2023-05-06T15:00:30.726Z,98376.56
2023-05-06T15:02:57.062Z,98381.06
2023-05-06T15:05:23.470Z,98386.09
2023-05-06T15:07:49.841Z,98388.38
2023-05-06T15:10:16.279Z,98381.75
2023-05-06T15:12:42.627Z,98396.72
2023-05-06T15:15:09.630Z,98387.13
2023-05-06T15:17:37.294Z,98390.97
2023-05-06T15:20:04.002Z,98392.19
2023-05-06T15:22:30.415Z,98385.69
2023-05-06T15:24:56.758Z,98398.53
2023-05-06T15:27:23.088Z,98392.16
2023-05-06T15:29:49.426Z,98394.66
2023-05-06T15:32:15.824Z,98396.06
2023-05-06T15:34:42.177Z,98411.69
2023-05-06T15:37:08.507Z,98405.28
2023-05-06T15:39:35.639Z,98406.06
2023-05-06T15:42:02.277Z,98415.00
2023-05-06T15:44:28.622Z,98414.63
2023-05-06T15:46:55.024Z,98420.00
2023-05-06T15:51:50.603Z,98398.25
2023-05-06T15:54:16.933Z,98415.44
2023-05-06T15:56:43.248Z,98404.38
2023-05-06T15:59:09.583Z,98409.38
2023-05-06T16:02:12.829Z,98420.69
2023-05-06T16:04:23.602Z,98421.75
2023-05-06T16:06:50.140Z,98423.03
2023-05-06T16:09:16.495Z,98435.72
2023-05-06T16:11:42.946Z,98412.75
2023-05-06T16:14:09.259Z,98417.88
2023-05-06T16:16:35.762Z,98416.41
2023-05-06T16:19:02.287Z,98423.88
2023-05-06T16:21:28.682Z,98420.31
2023-05-06T16:23:55.022Z,98417.41
2023-05-06T16:26:22.469Z,98425.63
2023-05-06T16:28:48.799Z,98433.88
2023-05-06T16:31:15.342Z,98434.16
2023-05-06T16:33:41.769Z,98435.28
2023-05-06T16:36:08.282Z,98433.50
2023-05-06T16:38:34.612Z,98439.63
2023-05-06T16:41:00.928Z,98437.38
2023-05-06T16:43:27.642Z,98429.28
2023-05-06T16:45:53.972Z,98438.03
2023-05-06T16:48:20.357Z,98436.09
2023-05-06T16:50:46.756Z,98434.34
2023-05-06T16:53:13.146Z,98419.06
2023-05-06T16:55:39.743Z,98429.81
2023-05-06T16:58:06.122Z,98442.81
2023-05-06T17:00:32.688Z,98456.97
2023-05-06T17:02:59.241Z,98447.41
2023-05-06T17:05:25.728Z,98449.72
2023-05-06T17:07:52.588Z,98448.19
2023-05-06T17:10:18.960Z,98448.97
2023-05-06T17:12:45.334Z,98435.22
2023-05-06T17:15:11.888Z,98439.03
2023-05-06T17:17:39.470Z,98440.19
2023-05-06T17:20:06.482Z,98444.38
2023-05-06T17:22:32.887Z,98445.09
2023-05-06T17:24:59.212Z,98444.25
2023-05-06T17:27:25.578Z,98446.88
2023-05-06T17:29:52.971Z,98447.19
2023-05-06T17:32:19.376Z,98451.72
2023-05-06T17:34:46.750Z,98445.56
2023-05-06T17:37:13.102Z,98444.81
2023-05-06T17:39:39.473Z,98444.00
2023-05-06T17:42:06.066Z,98439.84
2023-05-06T17:44:32.448Z,98448.19
2023-05-06T17:46:58.884Z,98438.13
2023-05-06T17:49:25.279Z,98444.25
2023-05-06T17:51:51.689Z,98456.69
2023-05-06T17:54:18.076Z,98465.00
2023-05-06T17:56:44.403Z,98468.38
2023-05-06T17:59:10.717Z,98466.63
2023-05-06T18:01:37.137Z,98472.28
2023-05-06T18:04:03.659Z,98473.00
2023-05-06T18:06:30.206Z,98475.84
2023-05-06T18:08:56.589Z,98476.00
2023-05-06T18:11:24.067Z,98480.97
2023-05-06T18:13:50.554Z,98479.50
2023-05-06T18:16:16.943Z,98483.22
2023-05-06T18:18:43.272Z,98485.88
2023-05-06T18:21:09.610Z,98488.88
2023-05-06T18:23:37.060Z,98490.31
2023-05-06T18:26:06.286Z,98495.56
2023-05-06T18:28:36.227Z,98495.72
2023-05-06T18:31:02.570Z,98494.44
2023-05-06T18:33:28.907Z,98504.25
2023-05-06T18:35:55.246Z,98490.47
2023-05-06T18:38:21.576Z,98498.72
2023-05-06T18:40:47.947Z,98500.16
2023-05-06T18:43:14.302Z,98507.94
2023-05-06T18:45:41.051Z,98500.59
2023-05-06T18:48:07.410Z,98499.75
2023-05-06T18:50:35.413Z,98507.75
2023-05-06T18:53:01.748Z,98493.28
2023-05-06T18:55:28.252Z,98502.47
2023-05-06T18:57:54.687Z,98514.47
2023-05-06T19:00:21.633Z,98513.34
2023-05-06T19:02:48.659Z,98526.34
2023-05-06T19:05:15.472Z,98511.44
2023-05-06T19:07:41.950Z,98515.22
2023-05-06T19:10:08.766Z,98517.00
2023-05-06T19:12:35.277Z,98522.97
2023-05-06T19:15:02.691Z,98521.41
2023-05-06T19:17:29.179Z,98522.28
2023-05-06T19:19:55.652Z,98527.06
2023-05-06T19:22:22.165Z,98533.16
2023-05-06T19:24:48.578Z,98535.59
2023-05-06T19:27:16.011Z,98521.56
2023-05-06T19:29:42.401Z,98519.53
2023-05-06T19:32:08.851Z,98536.63
2023-05-06T19:34:35.268Z,98544.59
2023-05-06T19:37:01.625Z,98525.38
2023-05-06T19:39:28.022Z,98541.84
2023-05-06T19:41:54.381Z,98541.50
2023-05-06T19:44:21.194Z,98550.00
2023-05-06T19:46:49.192Z,98546.53
2023-05-06T19:49:16.612Z,98544.88
2023-05-06T19:51:43.986Z,98548.63
2023-05-06T19:54:10.406Z,98545.44
2023-05-06T19:56:43.596Z,98557.88
2023-05-06T19:59:10.942Z,98550.16
2023-05-06T20:01:37.520Z,98549.78
2023-05-06T20:04:03.995Z,98560.28
2023-05-06T20:06:30.606Z,98545.44
2023-05-06T20:08:56.911Z,98553.44
2023-05-06T20:11:23.238Z,98554.72
2023-05-06T20:13:49.575Z,98547.66
2023-05-06T20:16:17.059Z,98546.50
2023-05-06T20:18:43.421Z,98552.78
2023-05-06T20:21:09.782Z,98553.41
2023-05-06T20:23:36.189Z,98559.50
2023-05-06T20:26:02.534Z,98530.25
2023-05-06T20:28:28.914Z,98530.03
2023-05-06T20:30:55.274Z,98549.59
2023-05-06T20:33:21.606Z,98553.88
2023-05-06T20:35:48.081Z,98565.94
2023-05-06T20:38:15.501Z,98565.16
2023-05-06T20:40:41.867Z,98567.56
2023-05-06T20:43:08.201Z,98543.25
2023-05-06T20:45:35.683Z,98561.03
2023-05-06T20:48:02.341Z,98561.25
2023-05-06T20:50:28.768Z,98574.41
2023-05-06T20:52:56.194Z,98579.72
2023-05-06T20:55:22.761Z,98585.72
2023-05-06T20:57:49.177Z,98563.03
2023-05-06T21:00:15.594Z,98572.44
2023-05-06T21:02:43.108Z,98575.34
2023-05-06T21:05:09.973Z,98562.88
2023-05-06T21:07:36.501Z,98570.84
2023-05-06T21:10:03.840Z,98579.44
2023-05-06T21:12:30.182Z,98568.78
2023-05-06T21:14:58.359Z,98589.63
2023-05-06T21:17:24.947Z,98591.81
2023-05-06T21:19:51.411Z,98592.09
2023-05-06T21:22:17.754Z,98598.19
2023-05-06T21:24:44.097Z,98596.78
2023-05-06T21:27:10.545Z,98599.72
2023-05-06T21:29:36.869Z,98592.72
2023-05-06T21:32:03.208Z,98581.78
2023-05-06T21:34:29.589Z,98566.69
2023-05-06T21:36:56.957Z,98582.44
2023-05-06T21:39:23.437Z,98588.97
2023-05-06T21:41:50.860Z,98591.31
2023-05-06T21:44:17.173Z,98591.41
2023-05-06T21:46:43.588Z,98589.94
2023-05-06T21:49:09.948Z,98597.91
2023-05-06T21:51:36.279Z,98591.41
2023-05-06T21:54:02.877Z,98579.84
2023-05-06T21:56:30.281Z,98594.66
2023-05-06T21:58:56.611Z,98587.41
2023-05-06T22:01:23.567Z,98595.47
2023-05-06T22:03:50.116Z,98601.88
2023-05-06T22:06:16.567Z,98596.72
2023-05-06T22:08:42.944Z,98604.00
2023-05-06T22:11:09.314Z,98586.38
2023-05-06T22:13:35.669Z,98594.63
2023-05-06T22:16:02.064Z,98600.78
2023-05-06T22:18:28.768Z,98597.50
2023-05-06T22:20:56.154Z,98590.50
2023-05-06T22:23:23.574Z,98600.25
2023-05-06T22:25:50.484Z,98600.66
2023-05-06T22:28:16.806Z,98599.91
2023-05-06T22:30:43.134Z,98616.41
2023-05-06T22:33:09.492Z,98595.03
2023-05-06T22:35:35.895Z,98597.88
2023-05-06T22:38:02.219Z,98610.09
2023-05-06T22:40:28.586Z,98598.97
2023-05-06T22:42:55.504Z,98603.84
2023-05-06T22:45:21.832Z,98593.06
2023-05-06T22:47:48.173Z,98599.38
2023-05-06T22:50:14.539Z,98579.31
2023-05-06T22:52:40.905Z,98585.19
2023-05-06T22:55:07.829Z,98590.06
2023-05-06T22:57:34.301Z,98592.72
2023-05-06T23:00:01.820Z,98589.56
2023-05-06T23:02:28.184Z,98580.50
2023-05-06T23:04:54.528Z,98604.69
2023-05-06T23:07:20.869Z,98603.84
2023-05-06T23:09:47.201Z,98611.34
2023-05-06T23:12:14.591Z,98602.28
2023-05-06T23:14:41.334Z,98610.59
2023-05-06T23:17:07.819Z,98600.16
2023-05-06T23:19:34.452Z,98617.53
2023-05-06T23:22:00.842Z,98600.09
2023-05-06T23:24:27.172Z,98581.09
2023-05-06T23:26:53.501Z,98590.41
2023-05-06T23:29:19.912Z,98577.84
2023-05-06T23:31:46.242Z,98595.22
2023-05-06T23:34:12.564Z,98586.16
2023-05-06T23:36:39.951Z,98580.31
2023-05-06T23:39:06.272Z,98588.13
2023-05-06T23:41:32.637Z,98594.34
2023-05-06T23:43:58.986Z,98585.28
2023-05-06T23:46:25.485Z,98586.16
2023-05-06T23:48:51.882Z,98588.81
2023-05-06T23:51:18.250Z,98584.50
2023-05-06T23:53:44.892Z,98588.69
2023-05-06T23:56:11.245Z,98589.78
2023-05-06T23:58:37.553Z,98580.38
